createdAt,value
2022-07-30T00:01:32.027Z,3.62
2022-07-30T00:06:37.815Z,2.47
2022-07-30T00:11:45.205Z,2.50
2022-07-30T00:16:51.501Z,2.83
2022-07-30T00:21:58.347Z,2.69
2022-07-30T00:27:04.722Z,3.43
2022-07-30T00:32:11.066Z,2.42
2022-07-30T00:37:17.435Z,2.53
2022-07-30T00:42:23.645Z,2.61
2022-07-30T00:47:30.001Z,2.64
2022-07-30T00:52:36.207Z,2.50
2022-07-30T00:57:42.037Z,2.75
2022-07-30T01:02:49.275Z,4.15
2022-07-30T01:07:55.587Z,2.94
2022-07-30T01:13:01.881Z,2.72
2022-07-30T01:18:08.268Z,2.99
2022-07-30T01:23:14.440Z,2.85
2022-07-30T01:28:20.709Z,4.40
2022-07-30T01:33:26.934Z,2.76
2022-07-30T01:38:35.143Z,4.24
2022-07-30T01:43:38.987Z,2.62
2022-07-30T01:48:45.298Z,2.97
2022-07-30T01:53:51.740Z,2.61
2022-07-30T01:58:58.046Z,2.65
2022-07-30T02:04:04.592Z,2.59
2022-07-30T02:09:11.512Z,2.63
2022-07-30T02:14:16.580Z,2.86
2022-07-30T02:19:22.839Z,2.75
2022-07-30T02:24:28.646Z,2.55
2022-07-30T02:29:34.983Z,2.79
2022-07-30T02:34:41.247Z,2.52
2022-07-30T02:39:47.505Z,3.99
2022-07-30T02:44:53.831Z,3.63
2022-07-30T02:50:00.187Z,2.76
2022-07-30T02:55:06.389Z,2.86
2022-07-30T03:00:12.697Z,2.79
2022-07-30T03:05:18.950Z,2.76
2022-07-30T03:10:25.272Z,4.32
2022-07-30T03:15:31.599Z,2.70
2022-07-30T03:20:37.974Z,4.06
2022-07-30T03:25:44.315Z,2.72
2022-07-30T03:30:50.570Z,2.72
2022-07-30T03:35:56.898Z,3.92
2022-07-30T03:41:03.315Z,2.58
2022-07-30T03:46:09.644Z,2.64
2022-07-30T03:51:15.947Z,2.84
2022-07-30T03:56:22.293Z,2.64
2022-07-30T04:01:28.722Z,4.06
2022-07-30T04:06:34.950Z,2.79
2022-07-30T04:11:42.057Z,4.20
2022-07-30T04:16:47.066Z,4.13
2022-07-30T04:21:53.397Z,3.86
2022-07-30T04:26:59.792Z,3.99
2022-07-30T04:32:05.909Z,2.67
2022-07-30T04:37:12.236Z,4.04
2022-07-30T04:42:18.651Z,4.04
2022-07-30T04:47:24.973Z,3.92
2022-07-30T04:52:31.303Z,2.64
2022-07-30T04:57:37.551Z,2.60
2022-07-30T05:02:43.804Z,2.67
2022-07-30T05:07:50.135Z,2.61
2022-07-30T05:12:56.479Z,2.69
2022-07-30T05:18:02.703Z,4.09
2022-07-30T05:23:09.072Z,2.58
2022-07-30T05:28:15.298Z,2.83
2022-07-30T05:33:21.564Z,2.62
2022-07-30T05:38:28.860Z,2.27
2022-07-30T05:43:33.135Z,2.37
2022-07-30T05:48:39.486Z,2.25
2022-07-30T05:53:45.750Z,2.44
2022-07-30T05:58:52.197Z,3.16
2022-07-30T06:03:59.265Z,4.36
2022-07-30T06:09:04.868Z,2.46
2022-07-30T06:14:11.114Z,4.07
2022-07-30T06:19:19.534Z,4.88
2022-07-30T06:24:22.962Z,5.44
2022-07-30T06:29:28.804Z,5.43
2022-07-30T06:34:35.382Z,5.55
2022-07-30T06:39:55.932Z,5.74
2022-07-30T06:44:47.485Z,9.39
2022-07-30T06:49:54.327Z,5.79
2022-07-30T06:55:00.620Z,6.07
2022-07-30T07:00:06.917Z,6.23
2022-07-30T07:05:13.205Z,6.56
2022-07-30T07:10:20.625Z,6.37
2022-07-30T07:15:32.403Z,5.94
2022-07-30T07:20:34.002Z,6.05
2022-07-30T07:25:40.269Z,5.52
2022-07-30T07:30:46.590Z,5.79
2022-07-30T07:35:52.823Z,5.76
2022-07-30T07:40:59.209Z,6.00
2022-07-30T07:46:05.587Z,9.07
2022-07-30T07:51:11.735Z,5.19
2022-07-30T07:56:18.503Z,5.67
2022-07-30T08:01:25.861Z,6.05
2022-07-30T08:06:32.387Z,5.99
2022-07-30T08:11:38.785Z,5.74
2022-07-30T08:16:45.127Z,5.26
2022-07-30T08:21:51.817Z,6.23
2022-07-30T08:26:59.999Z,9.64
2022-07-30T08:32:06.449Z,8.66
2022-07-30T08:37:14.130Z,8.75
2022-07-30T08:42:18.556Z,10.28
2022-07-30T08:47:24.847Z,9.45
2022-07-30T08:52:31.139Z,9.67
2022-07-30T08:57:37.432Z,12.36
2022-07-30T09:02:45.032Z,11.24
2022-07-30T09:07:51.125Z,9.03
2022-07-30T09:12:57.480Z,9.06
2022-07-30T09:18:03.829Z,6.95
2022-07-30T09:23:10.127Z,6.73
2022-07-30T09:28:16.963Z,6.44
2022-07-30T09:33:23.472Z,5.57
2022-07-30T09:38:29.672Z,5.76
2022-07-30T09:43:35.939Z,5.38
2022-07-30T09:48:42.262Z,7.03
2022-07-30T09:53:48.467Z,6.93
2022-07-30T09:58:54.781Z,4.71
2022-07-30T10:04:00.581Z,4.78
2022-07-30T10:09:14.104Z,5.10
2022-07-30T10:14:12.117Z,6.35
2022-07-30T10:19:23.528Z,5.22
2022-07-30T10:24:27.683Z,6.94
2022-07-30T10:29:34.062Z,5.32
2022-07-30T10:34:42.473Z,4.96
2022-07-30T10:39:44.642Z,5.96
2022-07-30T10:44:50.441Z,5.33
2022-07-30T10:49:56.940Z,4.88
2022-07-30T10:55:04.204Z,4.44
2022-07-30T11:00:10.125Z,4.77
2022-07-30T11:05:18.271Z,4.33
2022-07-30T11:10:23.493Z,4.40
2022-07-30T11:15:33.174Z,5.01
2022-07-30T11:20:35.616Z,4.89
2022-07-30T11:25:51.065Z,4.04
2022-07-30T11:30:49.426Z,3.71
2022-07-30T11:35:55.225Z,3.00
2022-07-30T11:41:00.492Z,2.71
2022-07-30T11:46:06.313Z,1.57
2022-07-30T11:51:12.713Z,2.30
2022-07-30T11:56:18.955Z,2.59
2022-07-30T12:01:25.348Z,2.45
2022-07-30T12:06:31.611Z,2.54
2022-07-30T12:11:38.024Z,2.46
2022-07-30T12:16:44.531Z,2.76
2022-07-30T12:21:53.313Z,3.62
2022-07-30T12:26:57.820Z,2.53
2022-07-30T12:32:04.193Z,3.33
2022-07-30T12:37:11.397Z,3.51
2022-07-30T12:42:17.713Z,2.74
2022-07-30T12:47:24.226Z,2.92
2022-07-30T12:52:34.571Z,2.61
2022-07-30T12:57:38.256Z,2.79
2022-07-30T13:02:44.519Z,2.47
2022-07-30T13:07:50.842Z,2.55
2022-07-30T13:12:57.248Z,2.49
2022-07-30T13:18:03.500Z,2.34
2022-07-30T13:23:09.877Z,2.26
2022-07-30T13:28:18.250Z,2.08
2022-07-30T13:33:24.576Z,2.00
2022-07-30T13:38:30.905Z,1.99
2022-07-30T13:43:37.283Z,2.12
2022-07-30T13:48:43.658Z,2.40
2022-07-30T13:53:49.890Z,1.96
2022-07-30T13:58:57.274Z,2.07
2022-07-30T14:04:03.258Z,2.38
2022-07-30T14:09:09.530Z,2.07
2022-07-30T14:14:15.968Z,1.75
2022-07-30T14:19:23.741Z,1.46
2022-07-30T14:24:28.131Z,1.98
2022-07-30T14:29:43.406Z,1.47
2022-07-30T14:34:40.750Z,1.85
2022-07-30T14:39:52.252Z,1.65
2022-07-30T14:44:54.139Z,1.97
2022-07-30T14:50:01.237Z,1.96
2022-07-30T14:55:00.865Z,1.76
2022-07-30T15:00:11.500Z,1.74
2022-07-30T15:05:12.974Z,1.61
2022-07-30T15:10:12.334Z,1.53
2022-07-30T15:15:38.043Z,1.36
